Time;durP1;ratioP1;P1;durP2;ratioP2;P2;SDS_P1;SDS_P2;PMS_P1;PMS_P2;Temp;Humidity;BMP_temperature;BMP_pressure;BME280_temperature;BME280_humidity;BME280_pressure;Samples;Min_cycle;Max_cycle;Signal;HPM_P1;HPM_P2
2022/12/04 00:00:52;;;;;;;;;;;-0.20;99.90;;;;;;12337982;28;19926;-39
2022/12/04 00:06:54;;;;;;;;;;;-0.10;99.90;;;;;;12341420;28;19933;-39
2022/12/04 00:12:59;;;;;;;;;;;-0.10;99.90;;;;;;12345262;28;20306;-38
2022/12/04 00:19:01;;;;;;;;;;;-0.20;99.90;;;;;;12339228;28;20366;-39
2022/12/04 00:25:03;;;;;;;;;;;-0.10;99.90;;;;;;12332418;28;19945;-39
2022/12/04 00:31:05;;;;;;;;;;;-0.20;99.90;;;;;;12340200;28;19926;-39
2022/12/04 00:37:07;;;;;;;;;;;-0.10;99.90;;;;;;12345180;28;20050;-39
2022/12/04 00:43:09;;;;;;;;;;;-0.10;99.90;;;;;;12340907;28;19930;-39
2022/12/04 00:49:10;;;;;;;;;;;-0.10;99.90;;;;;;12337876;28;19945;-39
2022/12/04 00:55:12;;;;;;;;;;;-0.10;99.90;;;;;;12324070;28;19981;-39
2022/12/04 01:01:15;;;;;;;;;;;-0.10;99.90;;;;;;12331720;28;19933;-39
2022/12/04 01:07:17;;;;;;;;;;;-0.10;99.90;;;;;;12339789;28;19926;-39
2022/12/04 01:13:19;;;;;;;;;;;-0.10;99.90;;;;;;12332890;28;19984;-39
2022/12/04 01:19:20;;;;;;;;;;;0.00;99.90;;;;;;12337152;28;20293;-39
2022/12/04 01:25:22;;;;;;;;;;;-0.10;99.90;;;;;;12338995;28;19930;-38
2022/12/04 01:31:24;;;;;;;;;;;0.00;99.90;;;;;;12334517;28;20302;-39
2022/12/04 01:37:26;;;;;;;;;;;0.00;99.90;;;;;;12339599;28;19930;-39
2022/12/04 01:43:29;;;;;;;;;;;0.00;99.90;;;;;;12325947;28;19933;-39
2022/12/04 01:49:30;;;;;;;;;;;-0.10;99.90;;;;;;12339085;28;19930;-39
2022/12/04 01:55:32;;;;;;;;;;;-0.10;99.90;;;;;;12337652;28;19933;-39
2022/12/04 02:01:48;;;;;;;;;;;-0.10;99.90;;;;;;12335832;28;19930;-38
2022/12/04 02:07:52;;;;;;;;;;;-0.10;99.90;;;;;;12339211;28;20013;-39
2022/12/04 02:14:32;;;;;;;;;;;-0.10;99.90;;;;;;12334356;28;19972;-39
2022/12/04 02:20:54;;;;;;;;;;;0.00;99.90;;;;;;12234918;29;20455;-40
2022/12/04 02:27:00;;;;;;;;;;;-0.10;99.90;;;;;;12339687;28;20210;-39
2022/12/04 02:33:10;;;;;;;;;;;-0.10;99.90;;;;;;12341403;28;19976;-39
2022/12/04 02:39:20;;;;;;;;;;;-0.10;99.90;;;;;;12343391;28;19933;-38
2022/12/04 02:45:28;;;;;;;;;;;0.00;99.90;;;;;;12345504;28;19926;-39
2022/12/04 02:51:32;;;;;;;;;;;0.00;99.90;;;;;;12336443;28;19930;-39
2022/12/04 02:57:35;;;;;;;;;;;-0.10;99.90;;;;;;12345403;28;19930;-39
2022/12/04 03:03:37;;;;;;;;;;;0.00;99.90;;;;;;12347642;28;19933;-39
2022/12/04 03:09:44;;;;;;;;;;;0.10;99.90;;;;;;12343564;28;19934;-39
2022/12/04 03:15:48;;;;;;;;;;;-0.10;99.90;;;;;;12344602;28;19937;-39
2022/12/04 03:21:55;;;;;;;;;;;0.00;99.90;;;;;;12334428;28;19926;-39
2022/12/04 03:27:58;;;;;;;;;;;0.00;99.90;;;;;;12336839;28;19937;-39
2022/12/04 03:34:01;;;;;;;;;;;0.10;99.90;;;;;;12340511;28;19926;-39
2022/12/04 03:40:29;;;;;;;;;;;0.10;99.90;;;;;;12338883;28;20297;-39
2022/12/04 03:46:35;;;;;;;;;;;0.00;99.90;;;;;;12331284;28;19949;-40
2022/12/04 03:52:51;;;;;;;;;;;-0.10;99.90;;;;;;12338685;28;19961;-39
2022/12/04 03:58:56;;;;;;;;;;;-0.10;99.90;;;;;;12341851;28;19945;-39
2022/12/04 04:04:59;;;;;;;;;;;0.00;99.90;;;;;;12339330;28;19926;-40
2022/12/04 04:11:05;;;;;;;;;;;0.00;99.90;;;;;;12337394;28;19933;-39
2022/12/04 04:30:09;;;;;;;;;;;0.00;99.90;;;;;;12336035;28;19977;-39
2022/12/04 04:36:20;;;;;;;;;;;0.00;99.90;;;;;;12342548;28;19932;-38
2022/12/04 04:42:39;;;;;;;;;;;0.00;99.90;;;;;;12343238;28;19930;-38
2022/12/04 04:48:42;;;;;;;;;;;0.00;99.90;;;;;;12339235;28;19926;-39
2022/12/04 04:54:45;;;;;;;;;;;0.00;99.90;;;;;;12330974;28;20370;-39
2022/12/04 05:00:53;;;;;;;;;;;0.00;99.90;;;;;;12331453;28;19937;-39
2022/12/04 05:06:55;;;;;;;;;;;0.00;99.90;;;;;;12335891;28;19930;-39
2022/12/04 05:12:56;;;;;;;;;;;0.00;99.90;;;;;;12343814;28;20015;-38
2022/12/04 05:25:19;;;;;;;;;;;0.00;99.90;;;;;;12339601;28;19926;-38
2022/12/04 05:31:20;;;;;;;;;;;0.00;99.90;;;;;;12331175;28;19949;-39
2022/12/04 05:37:22;;;;;;;;;;;0.00;99.90;;;;;;12336344;28;20302;-39
2022/12/04 05:43:24;;;;;;;;;;;0.00;99.90;;;;;;12336937;28;19932;-39
2022/12/04 05:49:30;;;;;;;;;;;0.10;99.90;;;;;;12342681;28;19990;-39
2022/12/04 05:55:32;;;;;;;;;;;0.10;99.90;;;;;;12334252;28;20302;-39
2022/12/04 06:01:33;;;;;;;;;;;0.10;99.90;;;;;;12337862;28;19988;-39
2022/12/04 06:07:35;;;;;;;;;;;0.00;99.90;;;;;;12341415;28;19933;-38
2022/12/04 06:13:38;;;;;;;;;;;0.10;99.90;;;;;;12335263;28;19937;-38
2022/12/04 06:19:40;;;;;;;;;;;0.00;99.90;;;;;;12335946;28;19941;-39
2022/12/04 06:25:41;;;;;;;;;;;0.00;99.90;;;;;;12338467;28;19933;-39
2022/12/04 06:31:43;;;;;;;;;;;0.10;99.90;;;;;;12333967;28;19934;-38
2022/12/04 06:37:45;;;;;;;;;;;0.10;99.90;;;;;;12310288;28;20068;-39
2022/12/04 06:43:47;;;;;;;;;;;0.10;99.90;;;;;;12338920;28;19930;-39
2022/12/04 06:49:50;;;;;;;;;;;0.20;99.90;;;;;;12336457;28;19949;-39
2022/12/04 06:55:52;;;;;;;;;;;0.10;99.90;;;;;;12337248;28;20013;-39
2022/12/04 07:01:53;;;;;;;;;;;0.10;99.90;;;;;;12345746;28;19936;-39
2022/12/04 07:07:55;;;;;;;;;;;0.10;99.90;;;;;;12348056;28;20410;-39
2022/12/04 07:13:57;;;;;;;;;;;0.20;99.90;;;;;;12335210;28;19958;-39
2022/12/04 07:19:59;;;;;;;;;;;0.20;99.90;;;;;;12343319;28;19930;-38
2022/12/04 07:26:08;;;;;;;;;;;0.20;99.90;;;;;;12345129;28;19933;-39
2022/12/04 07:32:09;;;;;;;;;;;0.20;99.90;;;;;;12341380;28;19984;-39
2022/12/04 07:38:11;;;;;;;;;;;0.20;99.90;;;;;;12338515;28;19926;-39
2022/12/04 07:44:13;;;;;;;;;;;0.20;99.90;;;;;;12350099;28;19926;-38
2022/12/04 07:50:14;;;;;;;;;;;0.20;99.90;;;;;;12343815;28;19934;-39
2022/12/04 07:56:17;;;;;;;;;;;0.30;99.90;;;;;;12341977;28;19926;-38
2022/12/04 08:02:19;;;;;;;;;;;0.30;99.90;;;;;;12339544;28;20282;-38
2022/12/04 08:08:21;;;;;;;;;;;0.30;99.90;;;;;;12337032;28;19953;-39
2022/12/04 08:14:23;;;;;;;;;;;0.30;99.90;;;;;;12335403;28;19926;-39
2022/12/04 08:20:24;;;;;;;;;;;0.30;99.90;;;;;;12342748;28;19937;-39
2022/12/04 08:26:27;;;;;;;;;;;0.30;99.90;;;;;;12342964;28;19929;-39
2022/12/04 08:32:29;;;;;;;;;;;0.40;99.90;;;;;;12337358;28;19930;-39
2022/12/04 08:38:30;;;;;;;;;;;0.40;99.90;;;;;;12343602;28;19933;-39
2022/12/04 08:44:32;;;;;;;;;;;0.40;99.90;;;;;;12348482;28;19926;-39
2022/12/04 08:50:34;;;;;;;;;;;0.50;99.90;;;;;;12343477;28;19926;-38
2022/12/04 08:56:36;;;;;;;;;;;0.50;99.90;;;;;;12338055;28;20413;-39
2022/12/04 09:02:38;;;;;;;;;;;0.50;99.90;;;;;;12338786;28;20289;-39
2022/12/04 09:08:40;;;;;;;;;;;0.40;99.90;;;;;;12329753;28;20294;-39
2022/12/04 09:14:44;;;;;;;;;;;0.50;99.90;;;;;;12331285;28;20316;-39
2022/12/04 09:20:53;;;;;;;;;;;0.50;99.90;;;;;;12341941;28;19926;-39
2022/12/04 09:26:55;;;;;;;;;;;0.60;99.90;;;;;;12339924;28;20298;-39
2022/12/04 09:32:56;;;;;;;;;;;0.60;99.90;;;;;;12337833;28;20375;-39
2022/12/04 09:38:58;;;;;;;;;;;0.60;99.90;;;;;;12336200;28;19930;-38
2022/12/04 09:45:09;;;;;;;;;;;0.60;99.90;;;;;;12341196;28;19926;-39
2022/12/04 09:51:17;;;;;;;;;;;0.60;99.90;;;;;;12335135;28;20293;-39
2022/12/04 09:57:22;;;;;;;;;;;0.70;99.90;;;;;;12333712;28;19934;-39
2022/12/04 10:03:26;;;;;;;;;;;0.70;99.90;;;;;;12331119;28;19926;-39
2022/12/04 10:09:41;;;;;;;;;;;0.80;99.90;;;;;;12332665;28;19995;-38
2022/12/04 10:15:48;;;;;;;;;;;0.70;99.90;;;;;;12337387;28;19992;-39
2022/12/04 10:21:50;;;;;;;;;;;0.80;99.90;;;;;;12338521;28;19933;-39
2022/12/04 10:28:17;;;;;;;;;;;0.70;99.90;;;;;;12329931;28;19926;-39
2022/12/04 10:34:22;;;;;;;;;;;0.80;99.90;;;;;;12329606;28;19926;-39
2022/12/04 10:40:31;;;;;;;;;;;0.80;99.90;;;;;;12344657;28;19948;-38
2022/12/04 10:46:33;;;;;;;;;;;0.80;99.90;;;;;;12354428;28;19930;-39
2022/12/04 10:52:35;;;;;;;;;;;0.80;99.90;;;;;;12348199;28;20294;-39
2022/12/04 10:58:37;;;;;;;;;;;0.80;99.90;;;;;;12347338;28;19997;-39
2022/12/04 11:04:39;;;;;;;;;;;0.80;99.90;;;;;;12339537;28;19973;-38
2022/12/04 11:10:42;;;;;;;;;;;0.80;99.90;;;;;;12344948;28;20024;-39
2022/12/04 11:16:47;;;;;;;;;;;0.90;99.90;;;;;;12339583;28;20017;-39
2022/12/04 11:22:53;;;;;;;;;;;0.80;99.90;;;;;;12351326;28;19933;-39
2022/12/04 11:28:57;;;;;;;;;;;0.90;99.90;;;;;;12337994;28;19930;-39
2022/12/04 11:35:03;;;;;;;;;;;0.90;99.90;;;;;;12337588;28;20302;-39
2022/12/04 11:41:05;;;;;;;;;;;0.90;99.90;;;;;;12333392;28;19930;-39
2022/12/04 11:47:14;;;;;;;;;;;0.90;99.90;;;;;;12341553;28;19934;-39
2022/12/04 11:53:21;;;;;;;;;;;0.90;99.90;;;;;;12346801;28;19930;-39
2022/12/04 11:59:35;;;;;;;;;;;0.90;99.90;;;;;;12340244;28;20290;-39
2022/12/04 12:06:15;;;;;;;;;;;0.90;99.90;;;;;;12336461;28;19926;-40
2022/12/04 12:12:25;;;;;;;;;;;0.90;99.90;;;;;;12152003;29;20389;-39
2022/12/04 12:18:45;;;;;;;;;;;0.90;99.90;;;;;;12338684;28;19960;-39
2022/12/04 12:24:58;;;;;;;;;;;1.00;99.90;;;;;;12338658;28;19926;-38
2022/12/04 12:31:32;;;;;;;;;;;0.90;99.90;;;;;;12336214;28;19937;-39
2022/12/04 12:37:38;;;;;;;;;;;1.00;99.90;;;;;;12309598;28;19934;-38
2022/12/04 12:43:42;;;;;;;;;;;0.90;99.90;;;;;;12335834;28;19973;-39
2022/12/04 12:50:02;;;;;;;;;;;0.90;99.90;;;;;;12342056;28;19930;-39
2022/12/04 12:56:05;;;;;;;;;;;0.90;99.90;;;;;;12331312;28;19933;-39
2022/12/04 13:02:11;;;;;;;;;;;0.90;99.90;;;;;;12342818;28;19933;-39
2022/12/04 13:08:19;;;;;;;;;;;0.90;99.90;;;;;;12342124;28;19933;-39
2022/12/04 13:14:21;;;;;;;;;;;0.90;99.90;;;;;;12344305;28;20353;-39
2022/12/04 13:20:25;;;;;;;;;;;0.90;99.90;;;;;;12338886;28;19972;-39
2022/12/04 13:26:45;;;;;;;;;;;0.90;99.90;;;;;;12342013;28;20283;-38
2022/12/04 13:32:56;;;;;;;;;;;1.00;99.90;;;;;;12330121;28;19927;-39
2022/12/04 13:38:58;;;;;;;;;;;0.90;99.90;;;;;;12333742;28;20048;-39
2022/12/04 13:45:05;;;;;;;;;;;1.00;99.90;;;;;;12335435;28;20365;-39
2022/12/04 13:51:27;;;;;;;;;;;0.90;99.90;;;;;;12329013;28;19933;-38
2022/12/04 13:57:28;;;;;;;;;;;0.90;99.90;;;;;;12313361;28;20053;-39
2022/12/04 14:03:38;;;;;;;;;;;0.90;99.90;;;;;;12332620;28;19930;-38
2022/12/04 14:09:40;;;;;;;;;;;0.90;99.90;;;;;;12332506;28;20382;-39
2022/12/04 14:15:42;;;;;;;;;;;0.90;99.90;;;;;;12347667;28;20037;-39
2022/12/04 14:21:44;;;;;;;;;;;0.90;99.90;;;;;;12354433;28;20263;-38
2022/12/04 14:27:50;;;;;;;;;;;1.00;99.90;;;;;;12346979;28;19934;-39
2022/12/04 14:33:55;;;;;;;;;;;1.00;99.90;;;;;;12353382;28;19931;-39
2022/12/04 14:39:58;;;;;;;;;;;0.90;99.90;;;;;;12353588;28;19938;-39
2022/12/04 14:46:05;;;;;;;;;;;0.90;99.90;;;;;;12357057;28;19933;-38
2022/12/04 14:52:22;;;;;;;;;;;0.90;99.90;;;;;;12349517;28;20374;-39
2022/12/04 14:58:30;;;;;;;;;;;0.90;99.90;;;;;;12354134;28;20021;-39
2022/12/04 15:04:34;;;;;;;;;;;0.90;99.90;;;;;;12353176;28;20350;-39
2022/12/04 15:17:02;;;;;;;;;;;0.80;99.90;;;;;;12349641;28;19934;-39
2022/12/04 15:23:04;;;;;;;;;;;0.90;99.90;;;;;;12350386;28;19933;-39
2022/12/04 15:29:07;;;;;;;;;;;0.90;99.90;;;;;;12344188;28;19930;-39
2022/12/04 15:35:15;;;;;;;;;;;0.80;99.90;;;;;;12340034;28;19953;-39
2022/12/04 15:41:29;;;;;;;;;;;0.80;99.90;;;;;;12344616;28;19934;-39
2022/12/04 15:47:32;;;;;;;;;;;0.80;99.90;;;;;;12343070;28;19930;-39
2022/12/04 15:53:36;;;;;;;;;;;0.90;99.90;;;;;;12346717;28;19926;-39
2022/12/04 15:59:38;;;;;;;;;;;0.90;99.90;;;;;;12342551;28;20294;-39
2022/12/04 16:05:39;;;;;;;;;;;0.90;99.90;;;;;;12344906;28;19926;-39
2022/12/04 16:11:42;;;;;;;;;;;0.80;99.90;;;;;;12342917;28;19930;-39
2022/12/04 16:17:44;;;;;;;;;;;0.80;99.90;;;;;;12335938;28;20298;-39
2022/12/04 16:23:46;;;;;;;;;;;0.90;99.90;;;;;;12342664;28;19926;-38
2022/12/04 16:29:48;;;;;;;;;;;0.90;99.90;;;;;;12343245;28;19930;-39
2022/12/04 16:35:50;;;;;;;;;;;0.90;99.90;;;;;;12343614;28;19932;-39
2022/12/04 16:41:52;;;;;;;;;;;0.90;99.90;;;;;;12336026;28;19933;-38
2022/12/04 16:47:54;;;;;;;;;;;0.80;99.90;;;;;;12340338;28;20298;-39
2022/12/04 16:53:56;;;;;;;;;;;0.90;99.90;;;;;;12331919;28;19948;-38
2022/12/04 16:59:57;;;;;;;;;;;0.90;99.90;;;;;;12345265;28;19926;-39
2022/12/04 17:06:00;;;;;;;;;;;1.00;99.90;;;;;;12334525;28;20017;-39
2022/12/04 17:12:01;;;;;;;;;;;0.90;99.90;;;;;;12335083;28;19926;-39
2022/12/04 17:18:03;;;;;;;;;;;0.90;99.90;;;;;;12325817;28;19926;-39
2022/12/04 17:24:13;;;;;;;;;;;1.00;99.90;;;;;;12338447;28;19953;-39
2022/12/04 17:30:22;;;;;;;;;;;1.00;99.90;;;;;;12337827;28;19926;-39
2022/12/04 17:36:25;;;;;;;;;;;1.00;99.90;;;;;;12339901;28;19926;-39
2022/12/04 17:42:26;;;;;;;;;;;1.00;99.90;;;;;;12340363;28;19933;-39
2022/12/04 17:48:28;;;;;;;;;;;1.00;99.90;;;;;;12337855;28;19930;-39
2022/12/04 17:54:30;;;;;;;;;;;1.00;99.90;;;;;;12342879;28;19937;-39
2022/12/04 18:00:31;;;;;;;;;;;1.00;99.90;;;;;;12342284;28;20367;-38
2022/12/04 18:06:35;;;;;;;;;;;1.00;99.90;;;;;;12340756;28;20053;-39
2022/12/04 18:12:36;;;;;;;;;;;1.00;99.90;;;;;;12349391;28;19926;-39
2022/12/04 18:18:38;;;;;;;;;;;1.10;99.90;;;;;;12334416;28;19934;-39
2022/12/04 18:24:40;;;;;;;;;;;1.00;99.90;;;;;;12333768;28;19933;-39
2022/12/04 18:30:41;;;;;;;;;;;1.00;99.90;;;;;;12335599;28;19926;-39
2022/12/04 18:36:46;;;;;;;;;;;1.10;99.90;;;;;;12339363;28;20433;-39
2022/12/04 18:42:47;;;;;;;;;;;1.10;99.90;;;;;;12335144;28;19937;-39
2022/12/04 18:48:52;;;;;;;;;;;1.10;99.90;;;;;;12337611;28;20275;-39
2022/12/04 18:54:54;;;;;;;;;;;1.10;99.90;;;;;;12323915;28;19937;-39
2022/12/04 19:01:02;;;;;;;;;;;1.10;99.90;;;;;;12336084;28;20457;-39
2022/12/04 19:07:04;;;;;;;;;;;1.10;99.90;;;;;;12327642;28;19926;-39
2022/12/04 19:13:06;;;;;;;;;;;1.10;99.90;;;;;;12350474;28;19933;-39
2022/12/04 19:19:09;;;;;;;;;;;1.20;99.90;;;;;;12346293;28;19941;-39
2022/12/04 19:25:10;;;;;;;;;;;1.20;99.90;;;;;;12342477;28;19933;-39
2022/12/04 19:31:13;;;;;;;;;;;1.10;99.90;;;;;;12344373;28;19933;-39
2022/12/04 19:37:16;;;;;;;;;;;1.10;99.90;;;;;;12344382;28;19937;-39
2022/12/04 19:43:17;;;;;;;;;;;1.20;99.90;;;;;;12339511;28;19976;-39
2022/12/04 19:49:19;;;;;;;;;;;1.10;99.90;;;;;;12345549;28;19926;-39
2022/12/04 19:55:21;;;;;;;;;;;1.20;99.90;;;;;;12340183;28;19980;-39
2022/12/04 20:01:25;;;;;;;;;;;1.20;99.90;;;;;;12336558;28;19926;-39
2022/12/04 20:07:27;;;;;;;;;;;1.20;99.90;;;;;;12342944;28;19980;-39
2022/12/04 20:13:29;;;;;;;;;;;1.20;99.90;;;;;;12337013;28;19926;-39
2022/12/04 20:19:31;;;;;;;;;;;1.20;99.90;;;;;;12344451;28;20374;-39
2022/12/04 20:25:35;;;;;;;;;;;1.20;99.90;;;;;;12342130;28;19930;-39
2022/12/04 20:31:37;;;;;;;;;;;1.20;99.90;;;;;;12331433;28;20448;-39
2022/12/04 20:37:39;;;;;;;;;;;1.20;99.90;;;;;;12336053;28;19926;-39
2022/12/04 20:43:41;;;;;;;;;;;1.30;99.90;;;;;;12347177;28;20283;-39
2022/12/04 20:49:43;;;;;;;;;;;1.30;99.90;;;;;;12340687;28;20413;-39
2022/12/04 20:55:51;;;;;;;;;;;1.30;99.90;;;;;;12340023;28;20383;-39
2022/12/04 21:01:54;;;;;;;;;;;1.30;99.90;;;;;;12336435;28;19937;-40
2022/12/04 21:07:56;;;;;;;;;;;1.30;99.90;;;;;;12339548;28;19926;-39
2022/12/04 21:20:19;;;;;;;;;;;1.30;99.90;;;;;;12337250;28;19935;-39
2022/12/04 21:26:21;;;;;;;;;;;1.30;99.90;;;;;;12327433;28;19930;-39
2022/12/04 21:32:22;;;;;;;;;;;1.30;99.90;;;;;;12324713;28;19926;-39
2022/12/04 21:38:24;;;;;;;;;;;1.30;99.90;;;;;;12338262;28;19926;-39
2022/12/04 21:44:26;;;;;;;;;;;1.30;99.90;;;;;;12329459;28;20329;-39
2022/12/04 21:50:28;;;;;;;;;;;1.30;99.90;;;;;;12331523;28;19926;-39
2022/12/04 21:56:29;;;;;;;;;;;1.30;99.90;;;;;;12335932;28;19953;-39
2022/12/04 22:02:31;;;;;;;;;;;1.30;99.90;;;;;;12335878;28;19926;-39
2022/12/04 22:08:36;;;;;;;;;;;1.40;99.90;;;;;;12334189;28;19930;-39
2022/12/04 22:14:38;;;;;;;;;;;1.40;99.90;;;;;;12336293;28;19934;-39
2022/12/04 22:20:40;;;;;;;;;;;1.40;99.90;;;;;;12334571;28;19934;-39
2022/12/04 22:26:42;;;;;;;;;;;1.40;99.90;;;;;;12338431;28;19930;-39
2022/12/04 22:32:43;;;;;;;;;;;1.40;99.90;;;;;;12343778;28;19933;-39
2022/12/04 22:38:45;;;;;;;;;;;1.40;99.90;;;;;;12346925;28;19933;-40
2022/12/04 22:45:07;;;;;;;;;;;1.50;99.90;;;;;;12344480;28;19949;-39
2022/12/04 22:51:10;;;;;;;;;;;1.50;99.90;;;;;;12340007;28;20305;-39
2022/12/04 22:57:12;;;;;;;;;;;1.50;99.90;;;;;;12338813;28;19980;-39
2022/12/04 23:03:14;;;;;;;;;;;1.50;99.90;;;;;;12345360;28;19934;-39
2022/12/04 23:09:16;;;;;;;;;;;1.50;99.90;;;;;;12342599;28;20383;-39
2022/12/04 23:15:18;;;;;;;;;;;1.50;99.90;;;;;;12325345;28;19930;-39
2022/12/04 23:21:20;;;;;;;;;;;1.50;99.90;;;;;;12342454;28;19957;-39
2022/12/04 23:27:22;;;;;;;;;;;1.50;99.90;;;;;;12341713;28;19926;-39
2022/12/04 23:33:24;;;;;;;;;;;1.50;99.90;;;;;;12347702;28;19926;-39
2022/12/04 23:39:26;;;;;;;;;;;1.50;99.90;;;;;;12345788;28;20326;-39
2022/12/04 23:45:28;;;;;;;;;;;1.50;99.90;;;;;;12352352;28;20370;-39
2022/12/04 23:51:29;;;;;;;;;;;1.50;99.90;;;;;;12345779;28;19930;-38
2022/12/04 23:57:31;;;;;;;;;;;1.50;99.90;;;;;;12337828;28;19932;-39
